createdAt,value
2023-03-20T00:01:24.876Z,102006.00
2023-03-20T00:03:51.584Z,102011.00
2023-03-20T00:06:23.219Z,102014.00
2023-03-20T00:08:52.627Z,102012.00
2023-03-20T00:11:30.879Z,101990.00
2023-03-20T00:14:03.714Z,101993.00
2023-03-20T00:16:33.526Z,102008.00
2023-03-20T00:19:00.280Z,102015.00
2023-03-20T00:21:27.334Z,102011.00
2023-03-20T00:23:55.481Z,102023.00
2023-03-20T00:26:26.719Z,102034.00
2023-03-20T00:28:53.856Z,102030.00
2023-03-20T00:31:20.464Z,102038.00
2023-03-20T00:33:47.096Z,102028.00
2023-03-20T00:36:13.745Z,102025.00
2023-03-20T00:38:40.345Z,102018.00
2023-03-20T00:41:39.314Z,102025.00
2023-03-20T00:44:21.211Z,102014.00
2023-03-20T00:47:16.050Z,102011.00
2023-03-20T00:49:43.103Z,102005.00
2023-03-20T00:52:12.658Z,102003.00
2023-03-20T00:54:39.258Z,102000.00
2023-03-20T00:57:26.013Z,102013.00
2023-03-20T01:00:07.940Z,101996.00
2023-03-20T01:02:34.725Z,101993.00
2023-03-20T01:05:02.279Z,102000.00
2023-03-20T01:07:28.889Z,101999.00
2023-03-20T01:09:55.567Z,102004.00
2023-03-20T01:12:22.701Z,101997.00
2023-03-20T01:14:54.718Z,101998.00
2023-03-20T01:17:23.154Z,101996.00
2023-03-20T01:19:50.328Z,101995.00
2023-03-20T01:22:19.948Z,101991.00
2023-03-20T01:24:47.400Z,102000.00
2023-03-20T01:27:16.894Z,102003.00
2023-03-20T01:29:44.018Z,102004.00
2023-03-20T01:32:16.776Z,102003.00
2023-03-20T01:34:43.498Z,101999.00
2023-03-20T01:37:14.716Z,101986.00
2023-03-20T01:39:41.380Z,101973.00
2023-03-20T01:42:08.592Z,101973.00
2023-03-20T01:44:36.253Z,101971.00
2023-03-20T01:47:06.276Z,101970.00
2023-03-20T01:50:10.846Z,101976.00
2023-03-20T01:52:37.638Z,101971.00
2023-03-20T01:55:04.453Z,101975.00
2023-03-20T01:57:31.304Z,101978.00
2023-03-20T02:00:05.540Z,101978.00
2023-03-20T02:02:33.005Z,101978.00
2023-03-20T02:05:04.377Z,101980.00
2023-03-20T02:07:33.192Z,101982.00
2023-03-20T02:10:00.391Z,101982.00
2023-03-20T02:12:27.276Z,101991.00
2023-03-20T02:14:54.250Z,101984.00
2023-03-20T02:17:20.967Z,101981.00
2023-03-20T02:20:15.662Z,101976.00
2023-03-20T02:22:51.211Z,101981.00
2023-03-20T02:25:20.685Z,101969.00
2023-03-20T02:28:25.052Z,101974.00
2023-03-20T02:31:07.120Z,101969.00
2023-03-20T02:33:33.730Z,101967.00
2023-03-20T02:36:18.458Z,101969.00
2023-03-20T02:38:56.939Z,101977.00
2023-03-20T02:41:47.833Z,101964.00
2023-03-20T02:44:17.134Z,101975.00
2023-03-20T02:47:02.480Z,101959.00
2023-03-20T02:49:47.835Z,101951.00
2023-03-20T02:52:20.023Z,101965.00
2023-03-20T02:55:17.231Z,101972.00
2023-03-20T02:58:15.011Z,101965.00
2023-03-20T03:00:47.816Z,101963.00
2023-03-20T03:03:17.120Z,101967.00
2023-03-20T03:05:54.424Z,101961.00
2023-03-20T03:08:25.002Z,101963.00
2023-03-20T03:10:57.623Z,101957.00
2023-03-20T03:13:29.313Z,101954.00
2023-03-20T03:16:03.222Z,101948.00
2023-03-20T03:18:32.284Z,101940.00
2023-03-20T03:21:02.452Z,101936.00
2023-03-20T03:23:51.171Z,101938.00
2023-03-20T03:26:31.595Z,101942.00
2023-03-20T03:29:02.070Z,101952.00
2023-03-20T03:31:32.962Z,101946.00
2023-03-20T03:34:01.511Z,101946.00
2023-03-20T03:36:47.012Z,101944.00
2023-03-20T03:39:28.564Z,101949.00
2023-03-20T03:42:05.583Z,101951.00
2023-03-20T03:44:42.648Z,101956.00
2023-03-20T03:47:21.346Z,101942.00
2023-03-20T03:49:53.968Z,101943.00
2023-03-20T03:52:24.391Z,101944.00
2023-03-20T03:54:56.648Z,101939.00
2023-03-20T03:57:32.821Z,101934.00
2023-03-20T04:00:01.710Z,101922.00
2023-03-20T04:02:29.093Z,101918.00
2023-03-20T04:04:56.731Z,101914.00
2023-03-20T04:07:27.811Z,101911.00
2023-03-20T04:09:54.573Z,101917.00
2023-03-20T04:12:27.395Z,101921.00
2023-03-20T04:14:54.098Z,101927.00
2023-03-20T04:17:20.714Z,101930.00
2023-03-20T04:19:47.308Z,101929.00
2023-03-20T04:22:13.905Z,101919.00
2023-03-20T04:24:40.586Z,101922.00
2023-03-20T04:27:07.346Z,101908.00
2023-03-20T04:29:34.187Z,101903.00
2023-03-20T04:32:00.958Z,101909.00
2023-03-20T04:34:27.554Z,101904.00
2023-03-20T04:36:54.092Z,101904.00
2023-03-20T04:39:21.250Z,101906.00
2023-03-20T04:41:47.977Z,101906.00
2023-03-20T04:44:14.647Z,101904.00
2023-03-20T04:46:43.947Z,101908.00
2023-03-20T04:49:10.543Z,101913.00
2023-03-20T04:51:39.429Z,101914.00
2023-03-20T04:54:06.127Z,101918.00
2023-03-20T04:56:32.718Z,101909.00
2023-03-20T04:58:59.310Z,101918.00
2023-03-20T05:01:25.960Z,101918.00
2023-03-20T05:03:52.613Z,101914.00
2023-03-20T05:06:19.256Z,101918.00
2023-03-20T05:08:45.922Z,101919.00
2023-03-20T05:11:12.602Z,101918.00
2023-03-20T05:13:39.219Z,101908.00
2023-03-20T05:16:06.179Z,101907.00
2023-03-20T05:18:32.732Z,101917.00
2023-03-20T05:20:59.361Z,101916.00
2023-03-20T05:23:26.134Z,101914.00
2023-03-20T05:25:52.839Z,101910.00
2023-03-20T05:28:19.431Z,101899.00
2023-03-20T05:30:46.067Z,101907.00
2023-03-20T05:33:12.862Z,101909.00
2023-03-20T05:35:39.818Z,101906.00
2023-03-20T05:38:06.574Z,101899.00
2023-03-20T05:40:33.159Z,101895.00
2023-03-20T05:42:59.747Z,101897.00
2023-03-20T05:45:26.437Z,101899.00
2023-03-20T05:47:53.081Z,101904.00
2023-03-20T05:50:20.440Z,101891.00
2023-03-20T05:52:48.515Z,101894.00
2023-03-20T05:55:16.027Z,101891.00
2023-03-20T05:57:42.712Z,101893.00
2023-03-20T06:00:10.578Z,101898.00
2023-03-20T06:02:38.177Z,101901.00
2023-03-20T06:05:05.085Z,101912.00
2023-03-20T06:07:31.725Z,101910.00
2023-03-20T06:09:58.310Z,101910.00
2023-03-20T06:12:24.996Z,101913.00
2023-03-20T06:14:51.652Z,101905.00
2023-03-20T06:17:18.274Z,101901.00
2023-03-20T06:19:44.885Z,101906.00
2023-03-20T06:22:11.535Z,101907.00
2023-03-20T06:24:38.334Z,101909.00
2023-03-20T06:27:04.970Z,101902.00
2023-03-20T06:29:31.765Z,101891.00
2023-03-20T06:31:58.379Z,101898.00
2023-03-20T06:34:25.012Z,101897.00
2023-03-20T06:36:51.683Z,101899.00
2023-03-20T06:39:18.378Z,101893.00
2023-03-20T06:41:45.058Z,101894.00
2023-03-20T06:44:12.852Z,101891.00
2023-03-20T06:46:39.528Z,101892.00
2023-03-20T06:49:06.333Z,101884.00
2023-03-20T06:51:32.962Z,101890.00
2023-03-20T06:53:59.535Z,101887.00
2023-03-20T06:56:26.241Z,101893.00
2023-03-20T06:58:52.822Z,101891.00
2023-03-20T07:01:20.471Z,101890.00
2023-03-20T07:03:47.161Z,101895.00
2023-03-20T07:06:13.754Z,101894.00
2023-03-20T07:08:40.437Z,101895.00
2023-03-20T07:11:07.343Z,101897.00
2023-03-20T07:13:34.364Z,101903.00
2023-03-20T07:16:04.870Z,101901.00
2023-03-20T07:18:32.076Z,101902.00
2023-03-20T07:21:02.516Z,101910.00
2023-03-20T07:23:34.376Z,101905.00
2023-03-20T07:26:01.169Z,101905.00
2023-03-20T07:28:27.854Z,101900.00
2023-03-20T07:30:55.134Z,101902.00
2023-03-20T07:33:21.845Z,101906.00
2023-03-20T07:35:52.536Z,101909.00
2023-03-20T07:38:19.265Z,101910.00
2023-03-20T07:40:45.999Z,101908.00
2023-03-20T07:43:12.596Z,101911.00
2023-03-20T07:45:39.533Z,101915.00
2023-03-20T07:48:06.613Z,101926.00
2023-03-20T07:50:33.509Z,101917.00
2023-03-20T07:53:00.549Z,101913.00
2023-03-20T07:55:27.148Z,101913.00
2023-03-20T07:57:53.742Z,101919.00
2023-03-20T08:00:20.654Z,101918.00
2023-03-20T08:02:47.420Z,101913.00
2023-03-20T08:05:14.134Z,101918.00
2023-03-20T08:07:40.947Z,101916.00
2023-03-20T08:10:08.113Z,101932.00
2023-03-20T08:12:34.812Z,101930.00
2023-03-20T08:15:01.408Z,101915.00
2023-03-20T08:17:28.107Z,101923.00
2023-03-20T08:19:55.691Z,101916.00
2023-03-20T08:22:22.405Z,101929.00
2023-03-20T08:24:49.001Z,101908.00
2023-03-20T08:27:15.593Z,101923.00
2023-03-20T08:29:42.202Z,101923.00
2023-03-20T08:32:08.884Z,101919.00
2023-03-20T08:34:35.477Z,101924.00
2023-03-20T08:37:05.122Z,101929.00
2023-03-20T08:39:33.233Z,101927.00
2023-03-20T08:42:01.202Z,101926.00
2023-03-20T08:44:28.153Z,101930.00
2023-03-20T08:46:55.133Z,101925.00
2023-03-20T08:49:21.831Z,101929.00
2023-03-20T08:51:48.408Z,101935.00
2023-03-20T08:54:16.358Z,101934.00
2023-03-20T08:56:42.886Z,101929.00
2023-03-20T08:59:09.495Z,101929.00
2023-03-20T09:01:48.811Z,101926.00
2023-03-20T09:04:16.563Z,101919.00
2023-03-20T09:06:43.192Z,101923.00
2023-03-20T09:09:09.853Z,101918.00
2023-03-20T09:11:36.997Z,101921.00
2023-03-20T09:14:03.566Z,101919.00
2023-03-20T09:16:30.301Z,101911.00
2023-03-20T09:18:56.941Z,101923.00
2023-03-20T09:21:23.583Z,101922.00
2023-03-20T09:23:50.173Z,101922.00
2023-03-20T09:26:16.953Z,101921.00
2023-03-20T09:28:43.617Z,101922.00
2023-03-20T09:31:10.253Z,101925.00
2023-03-20T09:33:37.038Z,101920.00
2023-03-20T09:36:04.253Z,101932.00
2023-03-20T09:38:30.934Z,101922.00
2023-03-20T09:41:01.691Z,101925.00
2023-03-20T09:43:34.343Z,101928.00
2023-03-20T09:46:24.982Z,101922.00
2023-03-20T09:49:03.244Z,101924.00
2023-03-20T09:51:45.378Z,101927.00
2023-03-20T09:54:47.021Z,101928.00
2023-03-20T09:57:23.988Z,101933.00
2023-03-20T09:59:56.578Z,101937.00
2023-03-20T10:02:46.771Z,101940.00
2023-03-20T10:05:43.226Z,101933.00
2023-03-20T10:08:17.041Z,101931.00
2023-03-20T10:10:58.016Z,101937.00
2023-03-20T10:13:47.080Z,101937.00
2023-03-20T10:17:01.417Z,101932.00
2023-03-20T10:19:57.505Z,101927.00
2023-03-20T10:22:25.885Z,101923.00
2023-03-20T10:25:12.724Z,101926.00
2023-03-20T10:27:47.453Z,101921.00
2023-03-20T10:30:44.712Z,101915.00
2023-03-20T10:33:26.685Z,101911.00
2023-03-20T10:36:30.841Z,101919.00
2023-03-20T10:38:57.381Z,101906.00
2023-03-20T10:41:29.807Z,101900.00
2023-03-20T10:43:58.927Z,101893.00
2023-03-20T10:46:30.353Z,101901.00
2023-03-20T10:49:27.117Z,101906.00
2023-03-20T10:51:58.465Z,101895.00
2023-03-20T10:54:27.807Z,101890.00
2023-03-20T10:56:57.379Z,101891.00
2023-03-20T10:59:30.218Z,101892.00
2023-03-20T11:01:56.887Z,101899.00
2023-03-20T11:04:24.058Z,101901.00
2023-03-20T11:07:14.579Z,101894.00
2023-03-20T11:09:41.802Z,101892.00
2023-03-20T11:12:18.367Z,101887.00
2023-03-20T11:14:45.490Z,101894.00
2023-03-20T11:17:12.605Z,101885.00
2023-03-20T11:19:41.596Z,101896.00
2023-03-20T11:22:23.522Z,101883.00
2023-03-20T11:24:56.152Z,101886.00
2023-03-20T11:27:31.410Z,101879.00
2023-03-20T11:30:00.304Z,101880.00
2023-03-20T11:32:45.774Z,101884.00
2023-03-20T11:35:19.689Z,101876.00
2023-03-20T11:37:48.816Z,101879.00
2023-03-20T11:40:31.014Z,101876.00
2023-03-20T11:43:11.717Z,101872.00
2023-03-20T11:45:44.400Z,101873.00
2023-03-20T11:48:20.453Z,101863.00
2023-03-20T11:50:51.742Z,101878.00
2023-03-20T11:53:40.632Z,101872.00
2023-03-20T11:56:13.616Z,101864.00
2023-03-20T11:59:09.336Z,101870.00
2023-03-20T12:01:48.992Z,101869.00
2023-03-20T12:04:20.616Z,101855.00
2023-03-20T12:07:14.625Z,101859.00
2023-03-20T12:09:59.553Z,101853.00
2023-03-20T12:12:49.437Z,101859.00
2023-03-20T12:15:34.766Z,101854.00
2023-03-20T12:18:07.213Z,101854.00
2023-03-20T12:20:42.352Z,101844.00
2023-03-20T12:23:09.175Z,101848.00
2023-03-20T12:25:50.186Z,101861.00
2023-03-20T12:28:28.279Z,101854.00
2023-03-20T12:31:33.024Z,101849.00
2023-03-20T12:33:59.648Z,101844.00
2023-03-20T12:36:33.963Z,101838.00
2023-03-20T12:39:05.012Z,101839.00
2023-03-20T12:42:04.177Z,101834.00
2023-03-20T12:44:45.108Z,101836.00
2023-03-20T12:47:47.924Z,101834.00
2023-03-20T12:50:34.891Z,101839.00
2023-03-20T12:53:12.008Z,101830.00
2023-03-20T12:56:06.303Z,101825.00
2023-03-20T12:58:41.387Z,101828.00
2023-03-20T13:01:27.439Z,101824.00
2023-03-20T13:04:24.575Z,101833.00
2023-03-20T13:07:02.377Z,101831.00
2023-03-20T13:10:02.923Z,101835.00
2023-03-20T13:13:12.774Z,101829.00
2023-03-20T13:16:08.581Z,101833.00
2023-03-20T13:19:07.681Z,101828.00
2023-03-20T13:22:00.364Z,101823.00
2023-03-20T13:24:41.852Z,101828.00
2023-03-20T13:27:27.678Z,101827.00
2023-03-20T13:30:22.145Z,101822.00
2023-03-20T13:33:30.190Z,101827.00
2023-03-20T13:36:40.176Z,101817.00
2023-03-20T13:39:17.296Z,101824.00
2023-03-20T13:41:47.730Z,101822.00
2023-03-20T13:44:19.708Z,101817.00
2023-03-20T13:46:48.721Z,101814.00
2023-03-20T13:49:27.810Z,101825.00
2023-03-20T13:52:06.298Z,101818.00
2023-03-20T13:54:58.600Z,101820.00
2023-03-20T13:57:42.684Z,101812.00
2023-03-20T14:00:24.917Z,101801.00
2023-03-20T14:03:33.405Z,101801.00
2023-03-20T14:06:00.135Z,101791.00
2023-03-20T14:08:38.503Z,101797.00
2023-03-20T14:11:07.947Z,101792.00
2023-03-20T14:13:35.678Z,101786.00
2023-03-20T14:16:09.815Z,101794.00
2023-03-20T14:18:36.717Z,101786.00
2023-03-20T14:21:12.053Z,101788.00
2023-03-20T14:23:50.939Z,101781.00
2023-03-20T14:26:29.071Z,101784.00
2023-03-20T14:29:02.638Z,101781.00
2023-03-20T14:31:41.924Z,101780.00
2023-03-20T14:34:14.730Z,101782.00
2023-03-20T14:36:54.557Z,101772.00
2023-03-20T14:39:34.140Z,101780.00
2023-03-20T14:42:34.578Z,101781.00
2023-03-20T14:45:13.489Z,101788.00
2023-03-20T14:47:49.514Z,101776.00
2023-03-20T14:50:23.451Z,101773.00
2023-03-20T14:53:10.595Z,101770.00
2023-03-20T14:55:49.165Z,101777.00
2023-03-20T14:59:08.133Z,101767.00
2023-03-20T15:01:47.903Z,101769.00
2023-03-20T15:04:27.085Z,101779.00
2023-03-20T15:07:00.841Z,101770.00
2023-03-20T15:09:30.169Z,101773.00
2023-03-20T15:12:04.535Z,101767.00
2023-03-20T15:14:41.585Z,101759.00
2023-03-20T15:17:18.129Z,101768.00
2023-03-20T15:19:45.296Z,101752.00
2023-03-20T15:22:17.106Z,101763.00
2023-03-20T15:24:52.258Z,101761.00
2023-03-20T15:27:18.937Z,101763.00
2023-03-20T15:29:55.054Z,101767.00
2023-03-20T15:32:22.071Z,101768.00
2023-03-20T15:34:50.206Z,101766.00
2023-03-20T15:37:21.222Z,101763.00
2023-03-20T15:39:51.551Z,101768.00
2023-03-20T15:42:21.845Z,101755.00
2023-03-20T15:44:50.134Z,101752.00
2023-03-20T15:47:22.155Z,101758.00
2023-03-20T15:49:57.703Z,101752.00
2023-03-20T15:52:43.815Z,101761.00
2023-03-20T15:55:18.376Z,101763.00
2023-03-20T15:57:47.221Z,101755.00
2023-03-20T16:00:23.686Z,101759.00
2023-03-20T16:02:50.664Z,101751.00
2023-03-20T16:05:19.012Z,101759.00
2023-03-20T16:07:45.704Z,101753.00
2023-03-20T16:10:34.264Z,101753.00
2023-03-20T16:13:01.849Z,101755.00
2023-03-20T16:15:31.687Z,101744.00
2023-03-20T16:18:00.894Z,101748.00
2023-03-20T16:20:32.720Z,101752.00
2023-03-20T16:23:06.160Z,101748.00
2023-03-20T16:25:35.476Z,101752.00
2023-03-20T16:28:07.115Z,101738.00
2023-03-20T16:30:35.086Z,101737.00
2023-03-20T16:33:07.335Z,101743.00
2023-03-20T16:35:40.496Z,101743.00
2023-03-20T16:38:29.674Z,101747.00
2023-03-20T16:41:13.631Z,101748.00
2023-03-20T16:43:40.598Z,101744.00
2023-03-20T16:46:07.773Z,101754.00
2023-03-20T16:48:37.906Z,101744.00
2023-03-20T16:51:24.552Z,101743.00
2023-03-20T16:53:56.020Z,101741.00
2023-03-20T16:56:29.568Z,101739.00
2023-03-20T16:58:57.118Z,101747.00
2023-03-20T17:01:28.364Z,101748.00
2023-03-20T17:03:57.987Z,101751.00
2023-03-20T17:06:38.897Z,101752.00
2023-03-20T17:09:19.737Z,101748.00
2023-03-20T17:11:50.351Z,101741.00
2023-03-20T17:14:17.682Z,101754.00
2023-03-20T17:16:47.142Z,101746.00
2023-03-20T17:19:17.157Z,101747.00
2023-03-20T17:21:45.996Z,101743.00
2023-03-20T17:24:13.864Z,101748.00
2023-03-20T17:26:42.729Z,101748.00
2023-03-20T17:29:11.945Z,101746.00
2023-03-20T17:31:39.125Z,101746.00
2023-03-20T17:34:06.121Z,101752.00
2023-03-20T17:36:34.940Z,101745.00
2023-03-20T17:39:02.131Z,101755.00
2023-03-20T17:41:29.271Z,101748.00
2023-03-20T17:43:56.689Z,101760.00
2023-03-20T17:46:27.239Z,101762.00
2023-03-20T17:49:03.351Z,101759.00
2023-03-20T17:51:30.383Z,101764.00
2023-03-20T17:53:57.982Z,101763.00
2023-03-20T17:56:30.086Z,101767.00
2023-03-20T17:58:57.406Z,101763.00
2023-03-20T18:01:24.146Z,101761.00
2023-03-20T18:03:51.014Z,101770.00
2023-03-20T18:06:29.767Z,101766.00
2023-03-20T18:08:58.524Z,101771.00
2023-03-20T18:11:25.431Z,101767.00
2023-03-20T18:13:52.149Z,101769.00
2023-03-20T18:16:24.788Z,101776.00
2023-03-20T18:18:52.690Z,101779.00
2023-03-20T18:21:19.671Z,101775.00
2023-03-20T18:23:46.815Z,101780.00
2023-03-20T18:26:23.721Z,101773.00
2023-03-20T18:28:52.244Z,101779.00
2023-03-20T18:31:19.713Z,101776.00
2023-03-20T18:33:53.164Z,101770.00
2023-03-20T18:36:24.331Z,101775.00
2023-03-20T18:38:51.780Z,101779.00
2023-03-20T18:41:18.451Z,101781.00
2023-03-20T18:43:48.295Z,101785.00
2023-03-20T18:46:16.981Z,101777.00
2023-03-20T18:48:44.268Z,101787.00
2023-03-20T18:51:11.070Z,101783.00
2023-03-20T18:53:38.246Z,101777.00
2023-03-20T18:56:12.842Z,101774.00
2023-03-20T18:58:39.377Z,101768.00
2023-03-20T19:01:06.033Z,101782.00
2023-03-20T19:03:39.157Z,101770.00
2023-03-20T19:06:09.613Z,101764.00
2023-03-20T19:08:37.662Z,101769.00
2023-03-20T19:11:04.995Z,101772.00
2023-03-20T19:13:31.610Z,101766.00
2023-03-20T19:15:58.183Z,101767.00
2023-03-20T19:18:26.888Z,101767.00
2023-03-20T19:20:58.053Z,101768.00
2023-03-20T19:23:26.124Z,101768.00
2023-03-20T19:25:54.454Z,101764.00
2023-03-20T19:28:38.692Z,101763.00
2023-03-20T19:31:06.552Z,101768.00
2023-03-20T19:33:33.391Z,101769.00
2023-03-20T19:36:04.202Z,101769.00
2023-03-20T19:38:31.901Z,101770.00
2023-03-20T19:40:59.981Z,101765.00
2023-03-20T19:43:28.825Z,101759.00
2023-03-20T19:45:58.795Z,101767.00
2023-03-20T19:48:43.377Z,101761.00
2023-03-20T19:51:22.137Z,101767.00
2023-03-20T19:53:49.703Z,101755.00
2023-03-20T19:56:18.044Z,101757.00
2023-03-20T19:58:44.658Z,101759.00
2023-03-20T20:01:17.513Z,101760.00
2023-03-20T20:03:46.840Z,101756.00
2023-03-20T20:06:14.609Z,101755.00
2023-03-20T20:08:48.315Z,101753.00
2023-03-20T20:11:16.628Z,101746.00
2023-03-20T20:14:04.209Z,101759.00
2023-03-20T20:16:30.018Z,101743.00
2023-03-20T20:18:56.767Z,101745.00
2023-03-20T20:24:10.061Z,101749.00
2023-03-20T20:26:41.194Z,101740.00
2023-03-20T20:29:14.593Z,101740.00
2023-03-20T20:31:41.336Z,101739.00
2023-03-20T20:35:08.550Z,101737.00
2023-03-20T20:39:41.422Z,101738.00
2023-03-20T20:42:08.089Z,101744.00
2023-03-20T20:44:35.318Z,101740.00
2023-03-20T20:47:02.011Z,101734.00
2023-03-20T20:49:28.710Z,101738.00
2023-03-20T20:51:55.489Z,101731.00
2023-03-20T20:54:22.085Z,101735.00
2023-03-20T20:56:48.694Z,101729.00
2023-03-20T20:59:15.400Z,101726.00
2023-03-20T21:01:42.126Z,101720.00
2023-03-20T21:04:09.437Z,101721.00
2023-03-20T21:07:03.847Z,101715.00
2023-03-20T21:09:24.371Z,101718.00
2023-03-20T21:11:50.972Z,101717.00
2023-03-20T21:14:17.558Z,101718.00
2023-03-20T21:16:44.132Z,101707.00
2023-03-20T21:19:10.828Z,101714.00
2023-03-20T21:21:39.227Z,101713.00
2023-03-20T21:24:30.518Z,101709.00
2023-03-20T21:27:03.252Z,101711.00
2023-03-20T21:29:29.919Z,101705.00
2023-03-20T21:31:56.647Z,101711.00
2023-03-20T21:34:23.324Z,101713.00
2023-03-20T21:36:51.364Z,101706.00
2023-03-20T21:39:19.207Z,101705.00
2023-03-20T21:41:46.165Z,101714.00
2023-03-20T21:44:17.743Z,101712.00
2023-03-20T21:50:30.729Z,101701.00
2023-03-20T21:56:17.089Z,101703.00
2023-03-20T21:58:36.932Z,101697.00
2023-03-20T22:04:00.587Z,101700.00
2023-03-20T22:07:13.151Z,101711.00
2023-03-20T22:23:36.484Z,101697.00
2023-03-20T22:26:36.394Z,101705.00
2023-03-20T22:32:11.006Z,101696.00
2023-03-20T22:40:24.838Z,101683.00
2023-03-20T22:42:52.796Z,101684.00
2023-03-20T22:45:12.268Z,101681.00
2023-03-20T22:47:39.278Z,101681.00
2023-03-20T22:50:06.299Z,101672.00
2023-03-20T22:52:48.061Z,101673.00
2023-03-20T22:55:20.136Z,101674.00
2023-03-20T22:57:59.830Z,101674.00
2023-03-20T23:00:32.447Z,101675.00
2023-03-20T23:03:13.756Z,101675.00
2023-03-20T23:05:40.986Z,101664.00
2023-03-20T23:08:09.017Z,101661.00
2023-03-20T23:10:38.122Z,101658.00
2023-03-20T23:13:05.101Z,101650.00
2023-03-20T23:15:31.935Z,101654.00
2023-03-20T23:17:58.679Z,101639.00
2023-03-20T23:20:25.560Z,101649.00
2023-03-20T23:22:52.204Z,101651.00
2023-03-20T23:25:36.027Z,101647.00
2023-03-20T23:28:04.899Z,101643.00
2023-03-20T23:30:41.955Z,101638.00
2023-03-20T23:33:12.029Z,101640.00
2023-03-20T23:35:38.680Z,101637.00
2023-03-20T23:38:05.355Z,101630.00
2023-03-20T23:40:32.280Z,101628.00
2023-03-20T23:42:58.872Z,101616.00
2023-03-20T23:45:25.540Z,101621.00
2023-03-20T23:47:52.285Z,101617.00
2023-03-20T23:53:19.572Z,101608.00
2023-03-20T23:55:52.441Z,101613.00
2023-03-20T23:58:20.370Z,101616.00
